createdAt,value
2019-02-28T00:01:34.805Z,54.70
2019-02-28T00:03:07.274Z,54.40
2019-02-28T00:04:39.621Z,54.40
2019-02-28T00:06:12.671Z,54.40
2019-02-28T00:07:45.032Z,54.70
2019-02-28T00:09:17.255Z,54.50
2019-02-28T00:10:49.420Z,54.80
2019-02-28T00:12:21.716Z,54.70
2019-02-28T00:13:55.817Z,54.70
2019-02-28T00:15:29.628Z,55.60
2019-02-28T00:17:02.247Z,55.20
2019-02-28T00:18:34.481Z,55.40
2019-02-28T00:20:06.932Z,54.60
2019-02-28T00:21:40.633Z,54.70
2019-02-28T00:23:13.318Z,55.20
2019-02-28T00:24:45.635Z,55.20
2019-02-28T00:26:17.794Z,54.80
2019-02-28T00:27:52.679Z,55.00
2019-02-28T00:29:23.922Z,54.80
2019-02-28T00:30:56.200Z,55.00
2019-02-28T00:32:28.453Z,55.20
2019-02-28T00:34:04.518Z,55.20
2019-02-28T00:35:34.736Z,55.70
2019-02-28T00:37:07.012Z,55.30
2019-02-28T00:38:39.284Z,55.70
2019-02-28T00:40:11.638Z,55.90
2019-02-28T00:41:44.733Z,55.30
2019-02-28T00:43:16.997Z,55.10
2019-02-28T00:44:49.231Z,55.70
2019-02-28T00:46:21.481Z,55.60
2019-02-28T00:47:53.751Z,55.60
2019-02-28T00:49:26.000Z,55.10
2019-02-28T00:50:59.175Z,55.30
2019-02-28T00:52:32.082Z,55.10
2019-02-28T00:54:08.548Z,55.20
2019-02-28T00:55:39.935Z,55.00
2019-02-28T00:57:12.203Z,54.80
2019-02-28T00:58:44.514Z,55.10
2019-02-28T01:00:17.182Z,55.30
2019-02-28T01:01:49.417Z,55.90
2019-02-28T01:03:26.415Z,56.60
2019-02-28T01:04:55.667Z,55.90
2019-02-28T01:06:27.921Z,55.90
2019-02-28T01:08:00.091Z,56.10
2019-02-28T01:09:32.337Z,56.50
2019-02-28T01:11:04.602Z,56.40
2019-02-28T01:12:36.904Z,56.40
2019-02-28T01:14:09.169Z,56.80
2019-02-28T01:15:44.910Z,56.40
2019-02-28T01:17:15.600Z,57.00
2019-02-28T01:18:47.852Z,56.90
2019-02-28T01:20:20.143Z,57.00
2019-02-28T01:21:55.363Z,57.20
2019-02-28T01:23:29.352Z,57.10
2019-02-28T01:25:00.744Z,57.10
2019-02-28T01:26:32.974Z,57.20
2019-02-28T01:28:05.279Z,57.10
2019-02-28T01:29:37.513Z,57.40
2019-02-28T01:31:11.553Z,57.10
2019-02-28T01:32:43.972Z,57.50
2019-02-28T01:34:16.362Z,57.50
2019-02-28T01:35:48.534Z,57.40
2019-02-28T01:37:21.080Z,58.00
2019-02-28T01:38:57.451Z,58.00
2019-02-28T01:40:28.263Z,57.70
2019-02-28T01:42:00.455Z,57.90
2019-02-28T01:43:32.711Z,58.00
2019-02-28T01:45:07.084Z,57.60
2019-02-28T01:46:39.873Z,57.70
2019-02-28T01:48:12.098Z,57.50
2019-02-28T01:49:44.365Z,57.20
2019-02-28T01:51:16.678Z,57.40
2019-02-28T01:52:48.930Z,57.70
2019-02-28T01:54:21.219Z,57.70
2019-02-28T01:55:53.364Z,57.60
2019-02-28T01:57:25.595Z,57.40
2019-02-28T01:58:57.877Z,57.90
2019-02-28T02:00:30.183Z,57.20
2019-02-28T02:02:05.743Z,57.30
2019-02-28T02:03:36.457Z,57.00
2019-02-28T02:05:08.747Z,57.40
2019-02-28T02:06:41.030Z,57.40
2019-02-28T02:08:13.307Z,57.40
2019-02-28T02:09:46.295Z,57.40
2019-02-28T02:11:19.438Z,57.30
2019-02-28T02:12:51.736Z,57.50
2019-02-28T02:14:23.852Z,57.00
2019-02-28T02:15:55.964Z,57.30
2019-02-28T02:17:28.178Z,57.40
2019-02-28T02:19:00.461Z,57.70
2019-02-28T02:20:32.823Z,57.30
2019-02-28T02:22:09.208Z,58.20
2019-02-28T02:23:39.264Z,57.30
2019-02-28T02:25:11.647Z,57.20
2019-02-28T02:26:45.217Z,57.00
2019-02-28T02:28:18.013Z,57.30
2019-02-28T02:29:50.144Z,57.50
2019-02-28T02:31:27.597Z,57.30
2019-02-28T02:32:56.599Z,58.20
2019-02-28T02:34:29.645Z,57.30
2019-02-28T02:36:02.102Z,57.70
2019-02-28T02:37:34.383Z,57.50
2019-02-28T02:39:06.969Z,57.40
2019-02-28T02:40:39.225Z,57.20
2019-02-28T02:42:11.699Z,57.40
2019-02-28T02:43:44.001Z,57.40
2019-02-28T02:45:16.372Z,57.20
2019-02-28T02:46:55.479Z,57.00
2019-02-28T02:48:22.809Z,57.00
2019-02-28T02:49:57.456Z,57.20
2019-02-28T02:51:29.311Z,57.20
2019-02-28T02:53:05.405Z,57.10
2019-02-28T02:54:35.699Z,57.20
2019-02-28T02:56:07.988Z,57.10
2019-02-28T02:57:40.246Z,56.90
2019-02-28T02:59:12.579Z,56.80
2019-02-28T03:00:49.621Z,57.00
2019-02-28T03:02:18.954Z,57.00
2019-02-28T03:03:51.141Z,57.00
2019-02-28T03:05:23.389Z,57.00
2019-02-28T03:06:55.691Z,57.20
2019-02-28T03:08:27.935Z,57.10
2019-02-28T03:10:00.416Z,57.00
2019-02-28T03:11:32.676Z,57.10
2019-02-28T03:13:06.259Z,57.00
2019-02-28T03:14:38.917Z,56.80
2019-02-28T03:16:11.145Z,56.70
2019-02-28T03:17:47.219Z,56.80
2019-02-28T03:19:17.763Z,57.10
2019-02-28T03:20:50.043Z,56.90
2019-02-28T03:22:28.257Z,57.30
2019-02-28T03:23:56.283Z,57.70
2019-02-28T03:25:29.087Z,57.00
2019-02-28T03:27:01.470Z,57.10
2019-02-28T03:28:33.800Z,57.20
2019-02-28T03:30:07.569Z,57.30
2019-02-28T03:31:39.898Z,57.20
2019-02-28T03:33:23.863Z,57.00
2019-02-28T03:34:55.549Z,57.30
2019-02-28T03:36:20.686Z,57.20
2019-02-28T03:37:52.984Z,57.00
2019-02-28T03:39:25.813Z,57.20
2019-02-28T03:40:58.056Z,57.10
2019-02-28T03:42:30.362Z,57.20
2019-02-28T03:44:02.610Z,56.90
2019-02-28T03:45:35.409Z,57.00
2019-02-28T03:47:07.700Z,57.00
2019-02-28T03:48:40.025Z,57.00
2019-02-28T03:50:12.292Z,57.00
2019-02-28T03:51:44.733Z,57.50
2019-02-28T03:53:19.900Z,57.00
2019-02-28T03:54:51.274Z,57.30
2019-02-28T03:56:23.616Z,57.20
2019-02-28T03:57:55.892Z,57.20
2019-02-28T03:59:28.141Z,58.20
2019-02-28T04:01:00.367Z,57.70
2019-02-28T04:02:32.773Z,57.50
2019-02-28T04:04:11.009Z,57.60
2019-02-28T04:05:38.974Z,57.50
2019-02-28T04:07:15.702Z,57.80
2019-02-28T04:08:45.455Z,57.40
2019-02-28T04:10:22.090Z,57.40
2019-02-28T04:11:51.978Z,57.20
2019-02-28T04:13:24.140Z,57.50
2019-02-28T04:14:56.302Z,57.30
2019-02-28T04:16:28.528Z,57.50
2019-02-28T04:18:07.051Z,57.50
2019-02-28T04:19:34.811Z,57.60
2019-02-28T04:21:10.144Z,57.90
2019-02-28T04:22:41.442Z,57.90
2019-02-28T04:24:14.121Z,57.90
2019-02-28T04:25:46.466Z,58.00
2019-02-28T04:27:18.602Z,57.90
2019-02-28T04:28:54.650Z,58.00
2019-02-28T04:30:24.990Z,58.30
2019-02-28T04:31:58.143Z,58.00
2019-02-28T04:33:37.393Z,57.70
2019-02-28T04:35:04.930Z,58.20
2019-02-28T04:36:37.252Z,58.30
2019-02-28T04:38:09.435Z,58.00
2019-02-28T04:39:41.698Z,58.20
2019-02-28T04:41:14.024Z,58.10
2019-02-28T04:42:46.306Z,58.20
2019-02-28T04:44:19.028Z,58.50
2019-02-28T04:45:51.334Z,58.50
2019-02-28T04:47:23.462Z,58.30
2019-02-28T04:48:55.684Z,58.40
2019-02-28T04:50:31.317Z,58.40
2019-02-28T04:52:02.112Z,58.80
2019-02-28T04:53:34.276Z,58.80
2019-02-28T04:55:06.409Z,58.70
2019-02-28T04:56:38.546Z,58.50
2019-02-28T04:58:10.884Z,58.30
2019-02-28T04:59:43.098Z,58.30
2019-02-28T05:01:15.390Z,58.40
2019-02-28T05:02:47.648Z,58.20
2019-02-28T05:04:19.939Z,58.10
2019-02-28T05:05:52.014Z,58.10
2019-02-28T05:07:26.350Z,58.30
2019-02-28T05:08:58.281Z,58.50
2019-02-28T05:10:30.544Z,58.50
2019-02-28T05:12:05.238Z,59.10
2019-02-28T05:13:36.943Z,59.00
2019-02-28T05:15:09.375Z,58.50
2019-02-28T05:16:46.925Z,58.80
2019-02-28T05:18:15.848Z,58.70
2019-02-28T05:19:48.164Z,58.40
2019-02-28T05:21:20.503Z,59.00
2019-02-28T05:22:52.616Z,59.00
2019-02-28T05:24:24.887Z,58.90
2019-02-28T05:25:57.056Z,59.60
2019-02-28T05:27:34.821Z,59.30
2019-02-28T05:29:03.507Z,59.50
2019-02-28T05:30:35.825Z,59.40
2019-02-28T05:32:08.047Z,59.40
2019-02-28T05:33:42.083Z,60.20
2019-02-28T05:35:14.319Z,59.50
2019-02-28T05:36:46.506Z,59.50
2019-02-28T05:38:21.123Z,60.40
2019-02-28T05:39:52.627Z,60.10
2019-02-28T05:41:24.934Z,60.50
2019-02-28T05:42:58.421Z,60.00
2019-02-28T05:44:31.365Z,59.90
2019-02-28T05:46:03.616Z,60.50
2019-02-28T05:47:45.745Z,60.00
2019-02-28T05:49:10.025Z,59.80
2019-02-28T05:50:42.373Z,59.90
2019-02-28T05:52:14.755Z,60.00
2019-02-28T05:53:47.083Z,59.80
2019-02-28T05:55:24.429Z,60.50
2019-02-28T05:56:53.385Z,60.50
2019-02-28T05:58:25.515Z,60.40
2019-02-28T06:00:01.441Z,60.70
2019-02-28T06:01:31.924Z,60.30
2019-02-28T06:03:04.284Z,60.30
2019-02-28T06:04:37.124Z,60.10
2019-02-28T06:06:10.213Z,60.30
2019-02-28T06:07:42.390Z,60.70
2019-02-28T06:09:14.849Z,60.40
2019-02-28T06:10:47.225Z,60.70
2019-02-28T06:12:19.342Z,60.60
2019-02-28T06:13:52.835Z,61.40
2019-02-28T06:15:25.721Z,61.10
2019-02-28T06:16:57.848Z,60.80
2019-02-28T06:18:32.523Z,60.80
2019-02-28T06:20:05.198Z,61.00
2019-02-28T06:21:37.435Z,61.20
2019-02-28T06:23:10.148Z,61.20
2019-02-28T06:24:44.868Z,61.10
2019-02-28T06:26:16.714Z,61.30
2019-02-28T06:27:50.673Z,61.70
2019-02-28T06:29:23.142Z,61.80
2019-02-28T06:30:55.433Z,61.70
2019-02-28T06:32:27.748Z,61.40
2019-02-28T06:33:59.912Z,61.30
2019-02-28T06:35:32.029Z,61.10
2019-02-28T06:37:04.533Z,62.10
2019-02-28T06:38:36.893Z,62.10
2019-02-28T06:40:11.066Z,61.40
2019-02-28T06:41:43.176Z,61.40
2019-02-28T06:43:18.715Z,61.10
2019-02-28T06:44:49.593Z,61.40
2019-02-28T06:46:21.683Z,61.30
2019-02-28T06:47:53.942Z,61.30
2019-02-28T06:49:26.084Z,61.40
2019-02-28T06:50:58.158Z,61.70
2019-02-28T06:52:30.447Z,61.70
2019-02-28T06:54:04.456Z,61.50
2019-02-28T06:55:47.114Z,61.80
2019-02-28T06:57:19.427Z,62.30
2019-02-28T06:58:51.773Z,61.70
2019-02-28T07:00:23.963Z,61.70
2019-02-28T07:01:57.558Z,61.80
2019-02-28T07:03:29.909Z,61.80
2019-02-28T07:05:02.248Z,62.40
2019-02-28T07:06:35.970Z,62.00
2019-02-28T07:08:08.621Z,61.80
2019-02-28T07:09:40.864Z,62.10
2019-02-28T07:11:12.995Z,62.00
2019-02-28T07:12:45.118Z,62.40
2019-02-28T07:14:19.516Z,62.40
2019-02-28T07:15:55.455Z,62.80
2019-02-28T07:17:26.569Z,62.60
2019-02-28T07:19:00.271Z,63.70
2019-02-28T07:20:35.095Z,63.00
2019-02-28T07:22:07.245Z,62.70
2019-02-28T07:23:39.474Z,62.60
2019-02-28T07:25:12.758Z,62.40
2019-02-28T07:26:45.860Z,62.50
2019-02-28T07:28:18.489Z,63.00
2019-02-28T07:29:50.708Z,63.60
2019-02-28T07:31:24.763Z,62.40
2019-02-28T07:32:57.502Z,62.50
2019-02-28T07:34:30.901Z,62.30
2019-02-28T07:36:05.668Z,62.60
2019-02-28T07:37:37.670Z,62.70
2019-02-28T07:39:10.040Z,62.80
2019-02-28T07:40:45.659Z,63.40
2019-02-28T07:42:19.000Z,63.20
2019-02-28T07:43:52.329Z,63.20
2019-02-28T07:45:24.686Z,62.70
2019-02-28T07:46:56.864Z,62.80
2019-02-28T07:48:30.667Z,62.90
2019-02-28T07:50:03.281Z,62.60
2019-02-28T07:51:35.809Z,63.10
2019-02-28T07:53:08.855Z,62.00
2019-02-28T07:54:42.079Z,61.80
2019-02-28T07:56:14.635Z,61.00
2019-02-28T07:57:51.300Z,60.00
2019-02-28T07:59:20.859Z,59.80
2019-02-28T08:00:53.731Z,59.30
2019-02-28T08:02:26.267Z,58.60
2019-02-28T08:03:58.504Z,58.10
2019-02-28T08:05:31.182Z,57.60
2019-02-28T08:07:03.549Z,57.30
2019-02-28T08:08:35.774Z,56.70
2019-02-28T08:10:12.739Z,56.40
2019-02-28T08:11:43.796Z,55.90
2019-02-28T08:13:16.130Z,55.40
2019-02-28T08:14:48.361Z,55.20
2019-02-28T08:16:20.620Z,54.80
2019-02-28T08:17:52.960Z,54.40
2019-02-28T08:19:27.239Z,54.20
2019-02-28T08:20:59.495Z,54.00
2019-02-28T08:22:31.619Z,53.50
2019-02-28T08:24:05.382Z,53.20
2019-02-28T08:25:39.678Z,52.90
2019-02-28T08:27:12.473Z,52.60
2019-02-28T08:28:44.902Z,52.70
2019-02-28T08:30:19.532Z,52.50
2019-02-28T08:31:52.666Z,52.30
2019-02-28T08:33:24.978Z,52.30
2019-02-28T08:34:59.425Z,52.30
2019-02-28T08:36:31.317Z,52.40
2019-02-28T08:38:03.665Z,52.30
2019-02-28T08:39:35.770Z,52.30
2019-02-28T08:41:08.001Z,52.10
2019-02-28T08:42:40.310Z,51.80
2019-02-28T08:44:12.537Z,51.40
2019-02-28T08:45:44.808Z,51.30
2019-02-28T08:47:17.855Z,51.40
2019-02-28T08:48:51.086Z,51.30
2019-02-28T08:50:23.778Z,51.00
2019-02-28T08:51:56.302Z,51.00
2019-02-28T08:53:31.383Z,51.10
2019-02-28T08:55:07.090Z,51.10
2019-02-28T08:56:38.824Z,51.20
2019-02-28T08:58:11.142Z,51.60
2019-02-28T08:59:43.401Z,51.80
2019-02-28T09:01:15.700Z,52.00
2019-02-28T09:02:52.436Z,52.30
2019-02-28T09:04:22.123Z,52.50
2019-02-28T09:05:54.391Z,52.90
2019-02-28T09:07:26.651Z,53.20
2019-02-28T09:08:59.871Z,53.50
2019-02-28T09:10:33.048Z,53.60
2019-02-28T09:12:05.289Z,54.10
2019-02-28T09:13:39.965Z,54.30
2019-02-28T09:15:12.888Z,54.10
2019-02-28T09:16:45.158Z,54.00
2019-02-28T09:18:17.548Z,54.00
2019-02-28T09:19:49.692Z,53.80
2019-02-28T09:21:21.988Z,53.50
2019-02-28T09:22:54.251Z,53.10
2019-02-28T09:24:26.515Z,52.60
2019-02-28T09:25:58.671Z,53.30
2019-02-28T09:27:30.977Z,53.00
2019-02-28T09:29:03.291Z,52.90
2019-02-28T09:30:37.137Z,52.60
2019-02-28T09:32:10.185Z,52.40
2019-02-28T09:33:43.586Z,51.80
2019-02-28T09:35:15.869Z,51.70
2019-02-28T09:36:48.121Z,51.60
2019-02-28T09:38:20.471Z,51.40
2019-02-28T09:39:54.292Z,51.10
2019-02-28T09:41:26.888Z,50.90
2019-02-28T09:42:59.132Z,50.60
2019-02-28T09:44:31.729Z,50.50
2019-02-28T09:46:04.851Z,50.60
2019-02-28T09:47:37.189Z,50.40
2019-02-28T09:49:12.992Z,50.20
2019-02-28T09:50:43.660Z,50.20
2019-02-28T09:52:16.006Z,49.70
2019-02-28T09:53:50.322Z,49.80
2019-02-28T09:55:22.222Z,49.70
2019-02-28T09:56:54.509Z,49.50
2019-02-28T09:58:29.256Z,49.40
2019-02-28T10:00:00.943Z,49.30
2019-02-28T10:01:33.243Z,49.20
2019-02-28T10:03:06.842Z,48.90
2019-02-28T10:04:42.336Z,48.90
2019-02-28T10:06:16.461Z,48.70
2019-02-28T10:07:48.734Z,48.70
2019-02-28T10:09:21.106Z,48.50
2019-02-28T10:10:55.815Z,48.50
2019-02-28T10:12:28.080Z,48.40
2019-02-28T10:14:00.365Z,48.40
2019-02-28T10:15:33.089Z,48.40
2019-02-28T10:17:05.565Z,48.20
2019-02-28T10:18:38.995Z,48.20
2019-02-28T10:20:27.105Z,47.80
2019-02-28T10:21:59.364Z,47.60
2019-02-28T10:23:31.707Z,47.40
2019-02-28T10:25:06.484Z,47.40
2019-02-28T10:26:38.952Z,47.40
2019-02-28T10:28:11.263Z,46.90
2019-02-28T10:29:43.489Z,46.90
2019-02-28T10:31:15.802Z,46.60
2019-02-28T10:32:48.087Z,46.40
2019-02-28T10:34:20.243Z,46.20
2019-02-28T10:35:52.480Z,46.30
2019-02-28T10:37:24.740Z,46.00
2019-02-28T10:38:56.926Z,46.20
2019-02-28T10:40:29.230Z,46.60
2019-02-28T10:42:04.768Z,46.40
2019-02-28T10:43:35.685Z,46.40
2019-02-28T10:45:09.051Z,46.40
2019-02-28T10:46:41.333Z,46.60
2019-02-28T10:48:13.535Z,46.30
2019-02-28T10:49:45.806Z,46.60
2019-02-28T10:51:18.139Z,46.70
2019-02-28T10:52:50.439Z,46.80
2019-02-28T10:54:22.715Z,46.70
2019-02-28T10:55:58.045Z,47.10
2019-02-28T10:57:29.167Z,47.10
2019-02-28T10:59:01.329Z,47.50
2019-02-28T11:00:33.981Z,47.70
2019-02-28T11:02:06.393Z,47.70
2019-02-28T11:03:38.648Z,47.90
2019-02-28T11:05:15.342Z,48.00
2019-02-28T11:06:49.273Z,48.10
2019-02-28T11:08:21.392Z,48.30
2019-02-28T11:09:55.548Z,48.50
2019-02-28T11:11:27.962Z,48.40
2019-02-28T11:13:00.138Z,48.50
2019-02-28T11:14:32.449Z,48.60
2019-02-28T11:16:06.673Z,48.90
2019-02-28T11:17:38.981Z,48.90
2019-02-28T11:19:13.825Z,49.20
2019-02-28T11:20:45.559Z,49.30
2019-02-28T11:22:18.062Z,49.30
2019-02-28T11:23:50.497Z,49.30
2019-02-28T11:25:24.577Z,49.50
2019-02-28T11:26:56.895Z,49.80
2019-02-28T11:28:29.325Z,49.80
2019-02-28T11:30:01.717Z,49.90
2019-02-28T11:31:34.081Z,50.00
2019-02-28T11:33:06.595Z,50.10
2019-02-28T11:34:38.842Z,49.90
2019-02-28T11:36:11.040Z,50.00
2019-02-28T11:37:46.055Z,50.70
2019-02-28T11:39:20.818Z,49.70
2019-02-28T11:40:57.228Z,50.00
2019-02-28T11:42:28.983Z,49.90
2019-02-28T11:44:02.236Z,50.10
2019-02-28T11:45:34.967Z,50.20
2019-02-28T11:47:08.439Z,50.10
2019-02-28T11:48:41.428Z,50.30
2019-02-28T11:50:13.956Z,49.50
2019-02-28T11:51:46.099Z,50.20
2019-02-28T11:53:19.134Z,49.40
2019-02-28T11:54:51.717Z,49.00
2019-02-28T11:56:25.578Z,48.90
2019-02-28T11:57:58.675Z,48.80
2019-02-28T11:59:31.044Z,48.10
2019-02-28T12:01:03.811Z,47.90
2019-02-28T12:02:36.097Z,47.40
2019-02-28T12:04:08.349Z,47.40
2019-02-28T12:05:40.499Z,47.70
2019-02-28T12:07:12.705Z,47.40
2019-02-28T12:08:45.775Z,47.50
2019-02-28T12:10:18.578Z,47.40
2019-02-28T12:11:50.858Z,47.40
2019-02-28T12:13:23.104Z,47.40
2019-02-28T12:14:55.379Z,47.00
2019-02-28T12:16:27.690Z,46.90
2019-02-28T12:18:03.366Z,46.90
2019-02-28T12:19:34.047Z,46.70
2019-02-28T12:21:06.351Z,46.70
2019-02-28T12:22:38.703Z,47.20
2019-02-28T12:24:10.973Z,46.20
2019-02-28T12:25:43.645Z,45.60
2019-02-28T12:27:16.020Z,46.60
2019-02-28T12:28:48.224Z,45.60
2019-02-28T12:30:25.112Z,45.70
2019-02-28T12:31:56.352Z,45.70
2019-02-28T12:33:28.626Z,45.80
2019-02-28T12:35:02.410Z,46.10
2019-02-28T12:36:34.660Z,45.70
2019-02-28T12:38:06.964Z,45.60
2019-02-28T12:39:39.261Z,45.60
2019-02-28T12:41:11.613Z,45.40
2019-02-28T12:42:43.928Z,45.50
2019-02-28T12:44:16.197Z,45.80
2019-02-28T12:45:48.629Z,45.80
2019-02-28T12:47:21.925Z,45.90
2019-02-28T12:48:54.195Z,45.70
2019-02-28T12:50:29.406Z,45.50
2019-02-28T12:52:00.776Z,45.50
2019-02-28T12:53:33.051Z,45.40
2019-02-28T12:55:06.685Z,45.40
2019-02-28T12:56:38.967Z,45.30
2019-02-28T12:58:11.276Z,45.60
2019-02-28T12:59:46.108Z,45.50
2019-02-28T13:01:17.694Z,45.70
2019-02-28T13:02:49.987Z,45.70
2019-02-28T13:04:22.229Z,45.10
2019-02-28T13:05:54.507Z,45.10
2019-02-28T13:07:26.845Z,45.10
2019-02-28T13:08:59.079Z,45.30
2019-02-28T13:10:31.361Z,45.40
2019-02-28T13:12:03.782Z,45.40
2019-02-28T13:13:36.054Z,45.20
2019-02-28T13:15:09.398Z,45.50
2019-02-28T13:16:41.695Z,45.80
2019-02-28T13:18:14.005Z,45.60
2019-02-28T13:19:46.387Z,45.60
2019-02-28T13:21:18.733Z,45.70
2019-02-28T13:22:51.063Z,45.50
2019-02-28T13:24:23.414Z,45.80
2019-02-28T13:25:59.398Z,45.70
2019-02-28T13:27:32.039Z,45.70
2019-02-28T13:29:04.129Z,46.10
2019-02-28T13:30:39.843Z,46.00
2019-02-28T13:32:10.578Z,45.90
2019-02-28T13:33:43.075Z,46.00
2019-02-28T13:35:23.514Z,46.20
2019-02-28T13:37:02.039Z,46.30
2019-02-28T13:38:30.033Z,46.30
2019-02-28T13:40:04.328Z,46.20
2019-02-28T13:41:36.780Z,46.30
2019-02-28T13:43:10.192Z,46.80
2019-02-28T13:44:42.454Z,46.70
2019-02-28T13:46:14.865Z,46.30
2019-02-28T13:47:47.890Z,46.70
2019-02-28T13:49:20.549Z,46.70
2019-02-28T13:50:52.954Z,46.60
2019-02-28T13:52:25.141Z,46.90
2019-02-28T13:53:57.407Z,46.80
2019-02-28T13:55:29.539Z,46.70
2019-02-28T13:57:08.205Z,47.00
2019-02-28T13:58:35.970Z,47.10
2019-02-28T14:00:44.009Z,47.20
2019-02-28T14:02:13.726Z,46.50
2019-02-28T14:03:46.927Z,46.80
2019-02-28T14:05:19.336Z,46.60
2019-02-28T14:06:52.355Z,46.30
2019-02-28T14:08:25.852Z,46.60
2019-02-28T14:09:58.372Z,46.50
2019-02-28T14:11:30.824Z,46.20
2019-02-28T14:13:03.730Z,45.80
2019-02-28T14:14:38.971Z,45.70
2019-02-28T14:16:10.177Z,45.80
2019-02-28T14:17:42.455Z,45.50
2019-02-28T14:19:16.833Z,45.90
2019-02-28T14:20:49.743Z,45.50
2019-02-28T14:22:25.327Z,45.50
2019-02-28T14:23:59.072Z,45.50
2019-02-28T14:25:31.501Z,45.70
2019-02-28T14:27:03.810Z,45.80
2019-02-28T14:28:36.380Z,45.90
2019-02-28T14:30:10.598Z,46.00
2019-02-28T14:31:42.864Z,46.30
2019-02-28T14:33:16.209Z,46.40
2019-02-28T14:34:49.504Z,46.20
2019-02-28T14:36:21.908Z,46.40
2019-02-28T14:37:55.566Z,46.50
2019-02-28T14:39:28.351Z,46.30
2019-02-28T14:41:00.634Z,46.60
2019-02-28T14:42:32.880Z,46.90
2019-02-28T14:44:05.082Z,47.20
2019-02-28T14:45:39.165Z,47.40
2019-02-28T14:47:12.232Z,47.50
2019-02-28T14:48:44.547Z,47.50
2019-02-28T14:50:18.943Z,47.30
2019-02-28T14:51:51.130Z,47.40
2019-02-28T14:53:23.424Z,47.60
2019-02-28T14:54:57.143Z,47.80
2019-02-28T14:56:30.003Z,47.80
2019-02-28T14:58:02.211Z,48.20
2019-02-28T14:59:34.495Z,47.40
2019-02-28T15:01:06.914Z,47.20
2019-02-28T15:02:39.157Z,47.30
2019-02-28T15:04:11.340Z,47.60
2019-02-28T15:05:43.612Z,47.30
2019-02-28T15:07:15.860Z,46.80
2019-02-28T15:08:51.008Z,46.60
2019-02-28T15:10:22.289Z,46.60
2019-02-28T15:11:54.587Z,46.50
2019-02-28T15:13:26.739Z,46.60
2019-02-28T15:14:58.955Z,46.60
2019-02-28T15:16:31.273Z,47.00
2019-02-28T15:18:03.866Z,46.60
2019-02-28T15:19:36.175Z,46.40
2019-02-28T15:21:08.429Z,46.60
2019-02-28T15:22:40.571Z,46.30
2019-02-28T15:24:12.815Z,46.50
2019-02-28T15:25:45.088Z,46.50
2019-02-28T15:27:17.328Z,46.40
2019-02-28T15:28:49.593Z,46.20
2019-02-28T15:30:24.425Z,46.20
2019-02-28T15:31:56.810Z,46.40
2019-02-28T15:33:30.488Z,46.60
2019-02-28T15:35:04.714Z,46.70
2019-02-28T15:36:36.998Z,46.80
2019-02-28T15:38:10.394Z,46.80
2019-02-28T15:39:42.886Z,46.70
2019-02-28T15:41:15.048Z,46.70
2019-02-28T15:42:47.311Z,46.90
2019-02-28T15:44:19.771Z,46.90
2019-02-28T15:45:52.093Z,46.90
2019-02-28T15:47:24.413Z,47.00
2019-02-28T15:48:56.659Z,47.30
2019-02-28T15:50:28.945Z,47.30
2019-02-28T15:52:01.905Z,47.10
2019-02-28T15:53:35.352Z,47.20
2019-02-28T15:55:07.633Z,47.20
2019-02-28T15:56:39.927Z,47.50
2019-02-28T15:58:12.176Z,47.80
2019-02-28T15:59:46.701Z,47.60
2019-02-28T16:01:18.642Z,47.70
2019-02-28T16:02:51.014Z,48.20
2019-02-28T16:04:23.529Z,48.40
2019-02-28T16:05:57.526Z,48.50
2019-02-28T16:07:33.343Z,48.70
2019-02-28T16:09:06.895Z,48.70
2019-02-28T16:10:39.192Z,49.50
2019-02-28T16:12:12.488Z,48.90
2019-02-28T16:13:45.694Z,49.10
2019-02-28T16:15:17.932Z,49.40
2019-02-28T16:16:50.244Z,49.70
2019-02-28T16:18:22.497Z,50.00
2019-02-28T16:19:56.211Z,50.30
2019-02-28T16:21:28.979Z,50.40
2019-02-28T16:23:01.189Z,50.70
2019-02-28T16:24:33.535Z,50.80
2019-02-28T16:26:05.902Z,51.00
2019-02-28T16:27:38.283Z,51.10
2019-02-28T16:29:10.546Z,51.20
2019-02-28T16:30:42.810Z,51.30
2019-02-28T16:32:15.452Z,51.40
2019-02-28T16:33:48.067Z,51.50
2019-02-28T16:35:20.321Z,51.60
2019-02-28T16:36:52.817Z,51.70
2019-02-28T16:38:25.087Z,51.90
2019-02-28T16:39:57.438Z,52.20
2019-02-28T16:41:29.550Z,53.10
2019-02-28T16:43:01.801Z,52.50
2019-02-28T16:44:34.055Z,52.70
2019-02-28T16:46:06.264Z,52.90
2019-02-28T16:47:38.526Z,52.90
2019-02-28T16:49:11.293Z,53.30
2019-02-28T16:50:43.708Z,53.40
2019-02-28T16:52:16.090Z,53.40
2019-02-28T16:53:48.878Z,53.70
2019-02-28T16:55:21.411Z,53.80
2019-02-28T16:56:53.675Z,53.70
2019-02-28T16:58:25.872Z,54.00
2019-02-28T16:59:58.093Z,54.10
2019-02-28T17:01:30.472Z,54.10
2019-02-28T17:03:03.945Z,54.40
2019-02-28T17:04:37.652Z,54.50
2019-02-28T17:06:09.918Z,54.50
2019-02-28T17:07:43.678Z,54.80
2019-02-28T17:09:22.808Z,55.10
2019-02-28T17:10:55.074Z,55.40
2019-02-28T17:12:46.873Z,55.30
2019-02-28T17:14:19.244Z,55.70
2019-02-28T17:16:10.030Z,55.80
2019-02-28T17:17:47.925Z,56.20
2019-02-28T17:19:20.292Z,56.20
2019-02-28T17:20:52.533Z,56.20
2019-02-28T17:22:27.018Z,56.10
2019-02-28T17:23:59.002Z,56.30
2019-02-28T17:25:31.300Z,56.00
2019-02-28T17:27:20.250Z,56.30
2019-02-28T17:29:06.512Z,56.50
2019-02-28T17:30:47.359Z,56.20
2019-02-28T17:32:20.007Z,56.40
2019-02-28T17:33:52.274Z,56.40
2019-02-28T17:35:24.511Z,56.60
2019-02-28T17:36:56.816Z,56.60
2019-02-28T17:38:32.307Z,56.80
2019-02-28T17:40:04.439Z,56.80
2019-02-28T17:41:37.332Z,56.60
2019-02-28T17:43:10.275Z,57.00
2019-02-28T17:45:10.105Z,56.80
2019-02-28T17:46:43.509Z,56.60
2019-02-28T17:48:45.350Z,56.70
2019-02-28T17:50:35.135Z,56.90
2019-02-28T17:52:14.406Z,57.00
2019-02-28T17:54:30.206Z,57.00
2019-02-28T17:56:47.226Z,57.10
2019-02-28T17:58:49.636Z,57.10
2019-02-28T18:01:15.765Z,57.70
2019-02-28T18:03:44.966Z,57.80
2019-02-28T18:05:39.004Z,57.60
2019-02-28T18:07:39.129Z,58.20
2019-02-28T18:09:36.410Z,58.00
2019-02-28T18:11:34.149Z,58.20
2019-02-28T18:13:40.421Z,58.50
2019-02-28T18:15:29.062Z,58.40
2019-02-28T18:17:35.197Z,58.60
2019-02-28T18:19:41.786Z,58.60
2019-02-28T18:21:48.902Z,58.70
2019-02-28T18:24:18.307Z,58.60
2019-02-28T18:26:18.213Z,58.70
2019-02-28T18:28:27.863Z,58.70
2019-02-28T18:30:22.760Z,58.80
2019-02-28T18:31:57.049Z,59.00
2019-02-28T18:33:29.163Z,58.90
2019-02-28T18:35:01.452Z,58.90
2019-02-28T18:36:33.755Z,59.00
2019-02-28T18:38:06.067Z,59.40
2019-02-28T18:39:38.377Z,59.40
2019-02-28T18:41:10.720Z,59.10
2019-02-28T18:42:42.993Z,59.20
2019-02-28T18:44:15.268Z,59.60
2019-02-28T18:45:47.513Z,59.70
2019-02-28T18:47:19.684Z,59.60
2019-02-28T18:48:54.382Z,59.50
2019-02-28T18:50:26.263Z,59.60
2019-02-28T18:51:59.665Z,59.70
2019-02-28T18:53:32.123Z,59.80
2019-02-28T18:55:06.437Z,59.80
2019-02-28T18:56:38.653Z,59.90
2019-02-28T18:58:10.926Z,59.90
2019-02-28T18:59:43.216Z,60.00
2019-02-28T19:01:15.535Z,60.00
2019-02-28T19:02:47.829Z,60.00
2019-02-28T19:04:20.081Z,60.40
2019-02-28T19:05:52.390Z,60.60
2019-02-28T19:07:24.720Z,60.50
2019-02-28T19:08:57.014Z,60.50
2019-02-28T19:10:29.317Z,60.40
2019-02-28T19:12:01.665Z,60.90
2019-02-28T19:13:33.822Z,61.00
2019-02-28T19:15:06.406Z,60.80
2019-02-28T19:16:38.699Z,61.20
2019-02-28T19:18:10.975Z,61.50
2019-02-28T19:19:43.265Z,61.30
2019-02-28T19:21:15.544Z,61.30
2019-02-28T19:22:47.854Z,61.50
2019-02-28T19:24:20.241Z,61.50
2019-02-28T19:25:52.568Z,61.60
2019-02-28T19:27:24.847Z,61.60
2019-02-28T19:28:57.208Z,61.80
2019-02-28T19:30:29.561Z,61.80
2019-02-28T19:32:01.937Z,62.20
2019-02-28T19:33:34.226Z,62.00
2019-02-28T19:35:06.554Z,63.40
2019-02-28T19:36:38.889Z,63.30
2019-02-28T19:38:11.168Z,62.90
2019-02-28T19:39:43.489Z,63.00
2019-02-28T19:41:15.704Z,63.40
2019-02-28T19:42:48.063Z,63.90
2019-02-28T19:44:20.340Z,63.60
2019-02-28T19:45:53.370Z,64.40
2019-02-28T19:47:25.737Z,64.30
2019-02-28T19:48:58.103Z,65.00
2019-02-28T19:50:30.441Z,64.70
2019-02-28T19:52:02.719Z,64.50
2019-02-28T19:53:34.914Z,65.20
2019-02-28T19:55:09.059Z,64.80
2019-02-28T19:56:41.314Z,64.60
2019-02-28T19:58:13.600Z,65.50
2019-02-28T19:59:45.842Z,65.40
2019-02-28T20:01:19.314Z,65.50
2019-02-28T20:02:51.642Z,65.40
2019-02-28T20:04:23.954Z,65.80
2019-02-28T20:05:56.224Z,65.50
2019-02-28T20:07:28.487Z,65.70
2019-02-28T20:09:00.792Z,65.30